ADDS METAR Data INFO
IDs: Format: Raw Decoded Include TAF

Data at: 0128 UTC 01 Aug 2015

Region: TOP
KATL 010052Z 23006KT 10SM BKN050TCU BKN200 25/22 A2995 RMK AO2 RAB01E29 SLP132 TCU NE & DSNT S P0000 T02500217

KBOS 010054Z 27010KT 10SM CLR 27/12 A2978 RMK AO2 SLP083 T02720122

KBWI 010054Z 00000KT 10SM FEW070 25/17 A2985 RMK AO2 SLP107 T02500167

KCLE 010051Z 25010KT 10SM FEW070 SCT085 SCT110 26/15 A2988 RMK AO2 PK WND 25027/0005 RAB06E12 SLP111 P0000 T02610150

KCLT 010052Z 04005KT 10SM FEW100 SCT250 30/11 A2995 RMK AO2 SLP132 T03000111

KCVG 010052Z 22005KT 10SM FEW060 26/16 A2997 RMK AO2 SLP139 BLDUPS N-NE T02560156

KDCA 010052Z 24005KT 10SM CLR 30/15 A2987 RMK AO2 SLP115 T03000150

KDEN 010053Z 20013KT 10SM FEW100 SCT140 29/09 A3021 RMK AO2 SLP147 T02890094

KDFW 010053Z 05007KT 10SM FEW100 BKN250 33/18 A3001 RMK AO2 SLP152 T03330178

KDTW 010053Z 26009KT 10SM FEW065 25/09 A2986 RMK AO2 SLP107 T02500089

KEWR 010051Z 24004KT 10SM FEW070 29/13 A2981 RMK AO2 SLP093 T02940128

KFLL 010053Z 33006KT 10SM FEW055 SCT110 OVC250 25/21 A3002 RMK AO2 SLP165 T02500206

KIAD 010052Z 21003KT 10SM CLR 24/17 A2988 RMK AO2 SLP114 T02390172

KIAH 010053Z 07008KT 10SM SCT250 32/17 A2992 RMK AO2 SLP130 T03170172

KJFK 010051Z 32008KT 10SM CLR 29/10 A2981 RMK AO2 SLP096 T02890100 $

KLAS 010056Z 16006KT 10SM TS SCT100CB BKN220 38/11 A2988 RMK AO2 TSB13 SLP084 OCNL LTGCG SE TS SE AND SW MOV N T03780111

KLAX 010053Z 25013KT 10SM FEW020 SCT048 SCT150 23/19 A2995 RMK AO2 SLP139 T02280189 $

KLGA 010051Z 00000KT 10SM FEW075 29/11 A2980 RMK AO2 SLP091 T02940111

KMCO 010053Z 21006KT 10SM FEW024 SCT055 BKN095 BKN180 24/23 A3000 RMK RAB23E51 SLP155 P0006 T02440233

KMDW 010053Z 32011KT 10SM FEW070 28/09 A2994 RMK AO2 SLP128 T02780089

KMEM 010054Z 01007KT 10SM FEW250 30/17 A3002 RMK AO2 SLP160 T03000167

KMIA 010053Z 27006KT 10SM FEW033CB BKN060 BKN110 24/21 A3003 RMK AO2 RAE35 TSE24 SLP169 OCNL LTGICCG DSNT SW-NW CB OHD-ALQDS MOV NE CB DSNT SW-NW P0001 T02390211

KMSP 010053Z 28010G18KT 10SM FEW080 26/12 A2998 RMK AO2 SLP147 T02610122

KORD 010051Z 32009KT 10SM CLR 27/09 A2994 RMK AO2 SLP135 T02670089

KPDX 010053Z 33008KT 10SM FEW070 FEW100 SCT250 37/06 A2991 RMK AO2 SLP129 FU FEW100 T03720061

KPHL 010054Z 26008KT 10SM CLR 28/15 A2984 RMK AO2 SLP104 T02830150 $

KPHX 010119Z 21011KT 10SM -RA FEW080 BKN110 BKN160 OVC250 27/22 A2994 RMK AO2 TSE13 PRESFR P0003 T02670222

KPIT 010051Z 24005KT 10SM FEW065 FEW250 26/14 A2990 RMK AO2 SLP121 T02560139

KSAN 010051Z 29009KT 10SM FEW015 BKN210 23/18 A2996 RMK AO2 SLP146 T02330178

KSEA 010053Z 29006KT 10SM FEW250 33/06 A3000 RMK AO2 SLP159 T03330061

KSFO 010056Z 28014KT 10SM FEW006 SCT180 20/15 A2997 RMK AO2 SLP149 T02000150

KSLC 010053Z 36007KT 10SM FEW160 FEW230 33/M06 A3010 RMK AO2 SLP136 T03331056

KSTL 010051Z 34004KT 10SM FEW250 30/16 A3002 RMK AO2 SLP153 T03000161

KTPA 010053Z 19010KT 10SM OVC075 26/23 A2999 RMK AO2 SLP153 T02560228